createdAt,value
2023-04-02T00:00:28.123Z,4.93
2023-04-02T00:02:55.292Z,4.99
2023-04-02T00:05:26.199Z,5.06
2023-04-02T00:07:58.185Z,5.08
2023-04-02T00:10:35.656Z,5.11
2023-04-02T00:13:12.018Z,5.11
2023-04-02T00:15:40.527Z,5.11
2023-04-02T00:18:07.784Z,5.11
2023-04-02T00:20:38.776Z,5.14
2023-04-02T00:23:06.817Z,5.17
2023-04-02T00:25:43.131Z,5.13
2023-04-02T00:28:14.748Z,5.12
2023-04-02T00:30:58.517Z,5.08
2023-04-02T00:33:28.711Z,5.03
2023-04-02T00:35:56.475Z,5.03
2023-04-02T00:38:34.390Z,4.99
2023-04-02T00:41:06.865Z,4.94
2023-04-02T00:43:37.384Z,4.91
2023-04-02T00:46:11.211Z,4.93
2023-04-02T00:48:45.730Z,4.96
2023-04-02T00:51:22.526Z,5.01
2023-04-02T00:53:52.191Z,5.03
2023-04-02T00:56:31.086Z,5.00
2023-04-02T00:58:57.992Z,4.91
2023-04-02T01:01:28.764Z,4.84
2023-04-02T01:03:59.801Z,4.83
2023-04-02T01:06:32.294Z,4.84
2023-04-02T01:09:08.006Z,4.86
2023-04-02T01:11:38.114Z,4.89
2023-04-02T01:14:29.101Z,4.92
2023-04-02T01:17:06.144Z,4.94
2023-04-02T01:19:35.849Z,4.98
2023-04-02T01:22:21.133Z,5.04
2023-04-02T01:24:48.784Z,5.04
2023-04-02T01:27:20.767Z,5.05
2023-04-02T01:29:53.460Z,5.05
2023-04-02T01:32:23.514Z,5.06
2023-04-02T01:34:52.671Z,5.12
2023-04-02T01:37:49.635Z,5.15
2023-04-02T01:40:40.387Z,5.13
2023-04-02T01:43:20.593Z,5.10
2023-04-02T01:45:47.571Z,5.10
2023-04-02T01:48:30.136Z,5.09
2023-04-02T01:51:03.905Z,5.08
2023-04-02T01:53:31.529Z,5.04
2023-04-02T01:56:00.862Z,5.04
2023-04-02T01:58:34.248Z,5.04
2023-04-02T02:01:12.488Z,5.06
2023-04-02T02:03:41.752Z,5.08
2023-04-02T02:06:13.405Z,5.12
2023-04-02T02:08:44.951Z,5.13
2023-04-02T02:11:15.777Z,5.14
2023-04-02T02:13:58.834Z,5.16
2023-04-02T02:16:28.948Z,5.16
2023-04-02T02:19:01.630Z,5.18
2023-04-02T02:21:40.224Z,5.18
2023-04-02T02:24:29.122Z,5.11
2023-04-02T02:27:14.345Z,5.02
2023-04-02T02:29:44.797Z,5.00
2023-04-02T02:32:18.053Z,5.03
2023-04-02T02:34:52.456Z,5.08
2023-04-02T02:37:24.839Z,5.09
2023-04-02T02:40:00.093Z,5.15
2023-04-02T02:42:32.843Z,5.12
2023-04-02T02:45:02.173Z,5.14
2023-04-02T02:47:33.276Z,5.18
2023-04-02T02:50:04.438Z,5.24
2023-04-02T02:52:35.750Z,5.25
2023-04-02T02:55:10.873Z,5.26
2023-04-02T02:57:53.353Z,5.28
2023-04-02T03:00:21.144Z,5.26
2023-04-02T03:02:49.707Z,5.28
2023-04-02T03:05:20.704Z,5.28
2023-04-02T03:07:49.920Z,5.29
2023-04-02T03:10:22.649Z,5.28
2023-04-02T03:13:12.184Z,5.30
2023-04-02T03:15:48.176Z,5.29
2023-04-02T03:18:27.270Z,5.28
2023-04-02T03:21:02.858Z,5.35
2023-04-02T03:23:33.518Z,5.32
2023-04-02T03:26:00.440Z,5.33
2023-04-02T03:28:32.179Z,5.42
2023-04-02T03:31:07.134Z,5.46
2023-04-02T03:33:46.021Z,5.49
2023-04-02T03:36:15.452Z,5.44
2023-04-02T03:38:46.083Z,5.39
2023-04-02T03:41:22.913Z,5.44
2023-04-02T03:44:04.564Z,5.47
2023-04-02T03:46:37.426Z,5.50
2023-04-02T03:49:18.602Z,5.52
2023-04-02T03:52:11.987Z,5.52
2023-04-02T03:54:39.713Z,5.52
2023-04-02T03:57:21.212Z,5.56
2023-04-02T03:59:57.663Z,5.59
2023-04-02T04:02:46.328Z,5.62
2023-04-02T04:05:36.412Z,5.62
2023-04-02T04:08:07.248Z,5.62
2023-04-02T04:10:35.421Z,5.63
2023-04-02T04:13:07.302Z,5.67
2023-04-02T04:15:43.109Z,5.72
2023-04-02T04:18:35.167Z,5.72
2023-04-02T04:21:29.850Z,5.76
2023-04-02T04:24:03.998Z,5.74
2023-04-02T04:26:41.117Z,5.75
2023-04-02T04:29:54.356Z,5.73
2023-04-02T04:32:39.287Z,5.75
2023-04-02T04:35:25.102Z,5.78
2023-04-02T04:38:16.551Z,5.80
2023-04-02T04:40:54.468Z,5.78
2023-04-02T04:43:28.020Z,5.77
2023-04-02T04:46:00.474Z,5.82
2023-04-02T04:48:46.482Z,5.85
2023-04-02T04:51:25.840Z,5.87
2023-04-02T04:53:55.410Z,5.89
2023-04-02T04:56:27.306Z,5.92
2023-04-02T04:59:15.917Z,5.94
2023-04-02T05:01:52.062Z,5.94
2023-04-02T05:04:38.231Z,5.90
2023-04-02T05:07:10.753Z,5.89
2023-04-02T05:09:42.861Z,5.93
2023-04-02T05:12:38.222Z,5.93
2023-04-02T05:15:11.632Z,5.92
2023-04-02T05:17:41.916Z,5.91
2023-04-02T05:20:11.461Z,5.92
2023-04-02T05:22:51.064Z,5.93
2023-04-02T05:25:20.926Z,5.94
2023-04-02T05:28:17.826Z,5.94
2023-04-02T05:30:46.852Z,5.97
2023-04-02T05:33:34.160Z,5.93
2023-04-02T05:36:03.011Z,5.87
2023-04-02T05:38:33.373Z,5.92
2023-04-02T05:41:08.532Z,5.95
2023-04-02T05:43:39.467Z,5.98
2023-04-02T05:46:27.363Z,5.98
2023-04-02T05:48:59.431Z,6.00
2023-04-02T05:51:36.933Z,6.03
2023-04-02T05:54:06.745Z,6.05
2023-04-02T05:56:47.295Z,6.10
2023-04-02T05:59:27.360Z,6.10
2023-04-02T06:02:25.353Z,6.10
2023-04-02T06:05:36.328Z,6.08
2023-04-02T06:08:08.623Z,6.05
2023-04-02T06:10:44.272Z,6.07
2023-04-02T06:13:17.824Z,6.05
2023-04-02T06:15:47.230Z,6.05
2023-04-02T06:18:22.736Z,6.11
2023-04-02T06:20:50.250Z,6.15
2023-04-02T06:23:25.270Z,6.19
2023-04-02T06:25:59.372Z,6.23
2023-04-02T06:28:38.278Z,6.26
2023-04-02T06:31:08.045Z,6.21
2023-04-02T06:33:34.827Z,6.20
2023-04-02T06:36:04.212Z,6.24
2023-04-02T06:38:32.483Z,6.29
2023-04-02T06:41:13.255Z,6.33
2023-04-02T06:43:50.976Z,6.35
2023-04-02T06:46:23.639Z,6.35
2023-04-02T06:48:57.122Z,6.41
2023-04-02T06:51:26.816Z,6.50
2023-04-02T06:53:53.550Z,6.54
2023-04-02T06:56:47.027Z,6.61
2023-04-02T06:59:17.819Z,6.66
2023-04-02T07:01:57.495Z,6.71
2023-04-02T07:04:25.257Z,6.71
2023-04-02T07:06:52.227Z,6.79
2023-04-02T07:09:19.455Z,6.85
2023-04-02T07:11:46.544Z,6.89
2023-04-02T07:14:13.849Z,6.93
2023-04-02T07:16:42.860Z,6.94
2023-04-02T07:19:20.542Z,6.97
2023-04-02T07:21:47.654Z,6.93
2023-04-02T07:24:14.623Z,6.94
2023-04-02T07:26:42.220Z,6.95
2023-04-02T07:29:13.880Z,6.95
2023-04-02T07:31:43.802Z,6.95
2023-04-02T07:34:13.938Z,6.97
2023-04-02T07:36:40.758Z,6.98
2023-04-02T07:39:07.529Z,6.98
2023-04-02T07:41:34.216Z,6.98
2023-04-02T07:44:01.088Z,6.98
2023-04-02T07:46:28.077Z,6.93
2023-04-02T07:48:54.809Z,6.98
2023-04-02T07:51:26.675Z,6.97
2023-04-02T07:53:56.550Z,6.96
2023-04-02T07:56:24.897Z,6.96
2023-04-02T07:58:51.759Z,6.95
2023-04-02T08:01:20.886Z,6.98
2023-04-02T08:03:48.285Z,6.99
2023-04-02T08:06:15.310Z,7.02
2023-04-02T08:08:42.733Z,7.01
2023-04-02T08:11:09.925Z,7.10
2023-04-02T08:13:37.339Z,7.13
2023-04-02T08:16:05.248Z,7.15
2023-04-02T08:18:32.072Z,7.19
2023-04-02T08:20:59.745Z,7.22
2023-04-02T08:23:27.633Z,7.28
2023-04-02T08:25:55.722Z,7.31
2023-04-02T08:28:23.088Z,7.31
2023-04-02T08:30:49.947Z,7.27
2023-04-02T08:33:18.115Z,7.25
2023-04-02T08:35:46.833Z,7.21
2023-04-02T08:38:19.125Z,7.22
2023-04-02T08:40:50.143Z,7.22
2023-04-02T08:43:53.902Z,7.28
2023-04-02T08:46:23.599Z,7.23
2023-04-02T08:48:55.947Z,7.25
2023-04-02T08:51:29.131Z,7.24
2023-04-02T08:54:29.766Z,7.24
2023-04-02T08:57:06.692Z,7.25
2023-04-02T08:59:36.379Z,7.30
2023-04-02T09:02:26.597Z,7.34
2023-04-02T09:04:54.175Z,7.34
2023-04-02T09:07:20.998Z,7.35
2023-04-02T09:09:50.053Z,7.35
2023-04-02T09:12:20.634Z,7.38
2023-04-02T09:15:14.937Z,7.38
2023-04-02T09:17:53.056Z,7.37
2023-04-02T09:20:26.134Z,7.24
2023-04-02T09:22:54.453Z,7.24
2023-04-02T09:25:33.484Z,7.22
2023-04-02T09:28:05.257Z,7.20
2023-04-02T09:30:32.058Z,7.21
2023-04-02T09:33:07.772Z,7.22
2023-04-02T09:35:55.100Z,7.22
2023-04-02T09:38:33.159Z,7.24
2023-04-02T09:41:01.593Z,7.24
2023-04-02T09:43:35.935Z,7.27
2023-04-02T09:46:23.486Z,7.29
2023-04-02T09:48:54.976Z,7.33
2023-04-02T09:51:26.818Z,7.34
2023-04-02T09:54:02.995Z,7.33
2023-04-02T09:56:32.051Z,7.40
2023-04-02T09:59:31.311Z,7.31
2023-04-02T10:02:01.024Z,7.28
2023-04-02T10:04:48.785Z,7.29
2023-04-02T10:07:44.647Z,7.30
2023-04-02T10:10:27.934Z,7.34
2023-04-02T10:13:03.258Z,7.34
2023-04-02T10:16:05.518Z,7.36
2023-04-02T10:18:47.612Z,7.40
2023-04-02T10:21:19.490Z,7.43
2023-04-02T10:23:46.244Z,7.43
2023-04-02T10:26:43.784Z,7.46
2023-04-02T10:29:16.189Z,7.46
2023-04-02T10:31:58.259Z,7.48
2023-04-02T10:35:00.807Z,7.47
2023-04-02T10:37:45.849Z,7.51
2023-04-02T10:40:27.646Z,7.57
2023-04-02T10:43:13.241Z,7.58
2023-04-02T10:45:54.613Z,7.64
2023-04-02T10:48:54.374Z,7.70
2023-04-02T10:51:47.132Z,7.71
2023-04-02T10:54:30.028Z,7.84
2023-04-02T10:57:04.150Z,7.90
2023-04-02T10:59:35.268Z,7.95
2023-04-02T11:02:10.907Z,8.06
2023-04-02T11:04:46.360Z,8.28
2023-04-02T11:07:27.533Z,8.45
2023-04-02T11:09:58.140Z,8.56
2023-04-02T11:12:36.586Z,8.57
2023-04-02T11:15:16.981Z,8.60
2023-04-02T11:17:45.107Z,8.68
2023-04-02T11:20:46.097Z,8.81
2023-04-02T11:23:15.438Z,8.91
2023-04-02T11:25:43.418Z,8.92
2023-04-02T11:28:27.912Z,8.86
2023-04-02T11:30:56.110Z,8.84
2023-04-02T11:33:37.367Z,8.84
2023-04-02T11:36:43.563Z,8.85
2023-04-02T11:39:17.564Z,8.86
2023-04-02T11:42:02.998Z,8.94
2023-04-02T11:44:29.959Z,8.95
2023-04-02T11:47:26.959Z,8.98
2023-04-02T11:49:57.740Z,9.01
2023-04-02T11:52:48.073Z,9.10
2023-04-02T11:55:27.510Z,9.20
2023-04-02T11:58:28.211Z,9.17
2023-04-02T12:01:14.983Z,9.19
2023-04-02T12:03:53.796Z,9.16
2023-04-02T12:06:27.118Z,9.04
2023-04-02T12:09:14.876Z,8.99
2023-04-02T12:11:42.947Z,8.98
2023-04-02T12:14:41.889Z,8.99
2023-04-02T12:17:40.420Z,8.97
2023-04-02T12:20:08.808Z,8.89
2023-04-02T12:22:39.592Z,8.85
2023-04-02T12:25:18.528Z,8.79
2023-04-02T12:27:46.792Z,8.71
2023-04-02T12:30:24.308Z,8.73
2023-04-02T12:32:51.131Z,8.76
2023-04-02T12:35:36.685Z,8.74
2023-04-02T12:38:03.794Z,8.71
2023-04-02T12:40:30.708Z,8.71
2023-04-02T12:42:57.496Z,8.75
2023-04-02T12:45:31.327Z,8.76
2023-04-02T12:47:58.410Z,8.78
2023-04-02T12:50:25.857Z,8.88
2023-04-02T12:52:55.086Z,8.90
2023-04-02T12:55:25.732Z,8.92
2023-04-02T12:57:59.977Z,8.94
2023-04-02T13:00:29.997Z,8.98
2023-04-02T13:03:05.783Z,9.01
2023-04-02T13:05:41.331Z,9.02
2023-04-02T13:08:18.513Z,9.05
2023-04-02T13:10:45.847Z,9.04
2023-04-02T13:13:22.065Z,9.04
2023-04-02T13:16:05.367Z,9.02
2023-04-02T13:18:33.647Z,9.02
2023-04-02T13:21:28.431Z,9.05
2023-04-02T13:23:55.951Z,9.01
2023-04-02T13:26:25.063Z,9.00
2023-04-02T13:28:57.551Z,8.98
2023-04-02T13:31:24.627Z,8.95
2023-04-02T13:33:51.866Z,8.92
2023-04-02T13:36:18.679Z,8.89
2023-04-02T13:38:45.641Z,8.84
2023-04-02T13:41:26.536Z,8.85
2023-04-02T13:43:57.022Z,8.81
2023-04-02T13:46:27.156Z,8.76
2023-04-02T13:48:55.942Z,8.74
2023-04-02T13:51:27.376Z,8.71
2023-04-02T13:53:57.674Z,8.64
2023-04-02T13:56:25.009Z,8.60
2023-04-02T13:58:52.450Z,8.57
2023-04-02T14:01:22.971Z,8.50
2023-04-02T14:03:51.304Z,8.42
2023-04-02T14:06:29.857Z,8.38
2023-04-02T14:09:02.298Z,8.30
2023-04-02T14:12:04.733Z,8.23
2023-04-02T14:15:14.495Z,8.17
2023-04-02T14:17:58.528Z,8.08
2023-04-02T14:20:25.389Z,8.01
2023-04-02T14:23:04.436Z,8.00
2023-04-02T14:25:55.520Z,7.97
2023-04-02T14:29:01.606Z,7.94
2023-04-02T14:31:44.517Z,7.89
2023-04-02T14:34:30.139Z,7.84
2023-04-02T14:37:13.797Z,7.83
2023-04-02T14:39:49.789Z,7.76
2023-04-02T14:42:42.064Z,7.73
2023-04-02T14:45:35.702Z,7.68
2023-04-02T14:48:32.966Z,7.63
2023-04-02T14:51:35.036Z,7.61
2023-04-02T14:54:22.731Z,7.56
2023-04-02T14:56:54.522Z,7.55
2023-04-02T14:59:42.973Z,7.55
2023-04-02T15:02:22.297Z,7.47
2023-04-02T15:05:04.513Z,7.49
2023-04-02T15:07:41.870Z,7.48
2023-04-02T15:10:26.423Z,7.48
2023-04-02T15:12:55.516Z,7.48
2023-04-02T15:15:43.405Z,7.48
2023-04-02T15:18:15.025Z,7.44
2023-04-02T15:21:09.877Z,7.40
2023-04-02T15:23:48.976Z,7.36
2023-04-02T15:26:26.438Z,7.34
2023-04-02T15:29:27.791Z,7.31
2023-04-02T15:32:26.647Z,7.24
2023-04-02T15:34:59.437Z,7.20
2023-04-02T15:37:35.000Z,7.20
2023-04-02T15:40:28.154Z,7.18
2023-04-02T15:43:03.632Z,7.13
2023-04-02T15:45:45.607Z,7.11
2023-04-02T15:48:15.183Z,7.08
2023-04-02T15:50:43.576Z,7.05
2023-04-02T15:53:36.533Z,6.99
2023-04-02T15:56:08.825Z,6.98
2023-04-02T15:59:13.929Z,6.93
2023-04-02T16:02:30.835Z,6.89
2023-04-02T16:05:27.373Z,6.84
2023-04-02T16:07:57.333Z,6.79
2023-04-02T16:10:41.189Z,6.80
2023-04-02T16:13:35.036Z,6.78
2023-04-02T16:16:06.421Z,6.76
2023-04-02T16:18:44.916Z,6.72
2023-04-02T16:21:18.737Z,6.70
2023-04-02T16:23:45.620Z,6.69
2023-04-02T16:26:27.664Z,6.68
2023-04-02T16:28:57.092Z,6.68
2023-04-02T16:31:46.732Z,6.60
2023-04-02T16:34:19.438Z,6.61
2023-04-02T16:36:58.574Z,6.59
2023-04-02T16:39:34.603Z,6.57
2023-04-02T16:42:12.486Z,6.58
2023-04-02T16:44:54.167Z,6.54
2023-04-02T16:47:30.224Z,6.50
2023-04-02T16:49:56.963Z,6.48
2023-04-02T16:52:26.601Z,6.49
2023-04-02T16:55:30.721Z,6.50
2023-04-02T16:58:34.685Z,6.45
2023-04-02T17:01:11.932Z,6.42
2023-04-02T17:03:57.065Z,6.41
2023-04-02T17:07:02.990Z,6.39
2023-04-02T17:09:41.620Z,6.33
2023-04-02T17:12:18.265Z,6.32
2023-04-02T17:14:51.668Z,6.32
2023-04-02T17:17:20.958Z,6.31
2023-04-02T17:19:51.625Z,6.31
2023-04-02T17:22:21.669Z,6.31
2023-04-02T17:24:56.580Z,6.27
2023-04-02T17:27:51.266Z,6.23
2023-04-02T17:30:24.630Z,6.21
2023-04-02T17:32:51.527Z,6.19
2023-04-02T17:35:44.683Z,6.18
2023-04-02T17:38:25.669Z,6.16
2023-04-02T17:41:20.142Z,6.14
2023-04-02T17:44:07.581Z,6.11
2023-04-02T17:46:57.783Z,6.08
2023-04-02T17:49:27.347Z,6.05
2023-04-02T17:52:22.538Z,6.03
2023-04-02T17:55:08.235Z,6.02
2023-04-02T17:57:55.367Z,6.00
2023-04-02T18:00:38.787Z,5.99
2023-04-02T18:03:29.949Z,6.00
2023-04-02T18:06:20.024Z,5.98
2023-04-02T18:09:05.994Z,5.98
2023-04-02T18:11:51.204Z,6.00
2023-04-02T18:14:36.322Z,5.99
2023-04-02T18:17:40.734Z,5.97
2023-04-02T18:20:31.485Z,5.95
2023-04-02T18:23:18.413Z,5.92
2023-04-02T18:25:57.085Z,5.93
2023-04-02T18:28:23.772Z,5.93
2023-04-02T18:30:55.083Z,5.97
2023-04-02T18:33:46.272Z,5.96
2023-04-02T18:36:21.291Z,5.96
2023-04-02T18:38:57.791Z,5.95
2023-04-02T18:41:43.894Z,5.95
2023-04-02T18:44:38.897Z,5.92
2023-04-02T18:47:20.635Z,5.91
2023-04-02T18:49:56.796Z,5.90
2023-04-02T18:52:24.876Z,5.88
2023-04-02T18:55:06.221Z,5.89
2023-04-02T18:57:36.293Z,5.87
2023-04-02T19:00:06.366Z,5.89
2023-04-02T19:02:42.582Z,5.88
2023-04-02T19:05:21.460Z,5.90
2023-04-02T19:07:52.694Z,5.87
2023-04-02T19:10:35.324Z,5.87
2023-04-02T19:13:02.120Z,5.86
2023-04-02T19:15:47.461Z,5.88
2023-04-02T19:18:38.564Z,5.90
2023-04-02T19:21:39.636Z,5.86
2023-04-02T19:24:34.629Z,5.86
2023-04-02T19:27:29.743Z,5.85
2023-04-02T19:30:20.636Z,5.85
2023-04-02T19:33:02.496Z,5.80
2023-04-02T19:35:29.269Z,5.79
2023-04-02T19:38:23.917Z,5.78
2023-04-02T19:40:57.745Z,5.78
2023-04-02T19:43:24.563Z,5.78
2023-04-02T19:45:53.341Z,5.78
2023-04-02T19:48:28.336Z,5.81
2023-04-02T19:50:55.062Z,5.77
2023-04-02T19:53:21.985Z,5.79
2023-04-02T19:55:48.895Z,5.82
2023-04-02T19:58:38.623Z,5.85
2023-04-02T20:01:05.774Z,5.84
2023-04-02T20:03:32.693Z,5.86
2023-04-02T20:06:00.030Z,5.86
2023-04-02T20:08:27.900Z,5.85
2023-04-02T20:10:58.742Z,5.85
2023-04-02T20:13:25.611Z,5.85
2023-04-02T20:15:52.461Z,5.87
2023-04-02T20:18:20.604Z,5.85
2023-04-02T20:20:48.811Z,5.83
2023-04-02T20:23:17.090Z,5.81
2023-04-02T20:25:48.688Z,5.78
2023-04-02T20:28:15.510Z,5.76
2023-04-02T20:30:42.424Z,5.79
2023-04-02T20:33:09.280Z,5.82
2023-04-02T20:35:37.760Z,5.81
2023-04-02T20:38:06.712Z,5.78
2023-04-02T20:40:33.813Z,5.76
2023-04-02T20:43:00.797Z,5.76
2023-04-02T20:45:29.389Z,5.75
2023-04-02T20:47:56.765Z,5.74
2023-04-02T20:50:23.835Z,5.75
2023-04-02T20:52:51.520Z,5.72
2023-04-02T20:55:18.374Z,5.69
2023-04-02T20:57:45.084Z,5.69
2023-04-02T21:00:12.810Z,5.69
2023-04-02T21:02:39.767Z,5.72
2023-04-02T21:05:06.977Z,5.73
2023-04-02T21:07:34.478Z,5.70
2023-04-02T21:10:01.824Z,5.69
2023-04-02T21:12:29.590Z,5.69
2023-04-02T21:14:59.744Z,5.68
2023-04-02T21:17:28.960Z,5.66
2023-04-02T21:19:55.917Z,5.64
2023-04-02T21:22:22.793Z,5.63
2023-04-02T21:24:49.616Z,5.64
2023-04-02T21:27:16.956Z,5.65
2023-04-02T21:29:43.718Z,5.66
2023-04-02T21:32:20.905Z,5.66
2023-04-02T21:34:48.762Z,5.62
2023-04-02T21:37:15.553Z,5.61
2023-04-02T21:39:42.525Z,5.60
2023-04-02T21:42:11.202Z,5.60
2023-04-02T21:44:37.953Z,5.58
2023-04-02T21:47:04.779Z,5.56
2023-04-02T21:49:31.523Z,5.53
2023-04-02T21:51:58.269Z,5.53
2023-04-02T21:54:25.098Z,5.52
2023-04-02T21:56:52.795Z,5.50
2023-04-02T21:59:19.884Z,5.49
2023-04-02T22:01:49.789Z,5.50
2023-04-02T22:04:19.907Z,5.45
2023-04-02T22:06:47.522Z,5.45
2023-04-02T22:09:19.799Z,5.43
2023-04-02T22:11:49.224Z,5.42
2023-04-02T22:14:16.291Z,5.40
2023-04-02T22:16:43.713Z,5.39
2023-04-02T22:19:15.276Z,5.38
2023-04-02T22:21:42.619Z,5.34
2023-04-02T22:24:14.551Z,5.33
2023-04-02T22:26:41.915Z,5.28
2023-04-02T22:29:09.276Z,5.27
2023-04-02T22:31:36.871Z,5.25
2023-04-02T22:34:05.650Z,5.23
2023-04-02T22:36:32.598Z,5.22
2023-04-02T22:38:59.910Z,5.22
2023-04-02T22:41:29.476Z,5.21
2023-04-02T22:43:56.950Z,5.19
2023-04-02T22:46:25.786Z,5.18
2023-04-02T22:48:53.414Z,5.18
2023-04-02T22:51:22.488Z,5.18
2023-04-02T22:53:49.638Z,5.14
2023-04-02T22:56:21.701Z,5.11
2023-04-02T22:58:49.307Z,5.12
2023-04-02T23:01:21.666Z,5.11
2023-04-02T23:03:48.492Z,5.11
2023-04-02T23:06:18.294Z,5.11
2023-04-02T23:08:46.217Z,5.12
2023-04-02T23:11:16.232Z,5.13
2023-04-02T23:13:43.640Z,5.13
2023-04-02T23:16:13.282Z,5.12
2023-04-02T23:18:41.968Z,5.12
2023-04-02T23:21:09.705Z,5.11
2023-04-02T23:23:37.798Z,5.10
2023-04-02T23:26:23.097Z,5.11
2023-04-02T23:28:50.678Z,5.12
2023-04-02T23:31:20.432Z,5.11
2023-04-02T23:33:47.468Z,5.09
2023-04-02T23:36:20.743Z,5.10
2023-04-02T23:38:47.656Z,5.09
2023-04-02T23:41:16.303Z,5.10
2023-04-02T23:43:43.735Z,5.08
2023-04-02T23:46:10.838Z,5.08
2023-04-02T23:48:37.745Z,5.07
2023-04-02T23:51:04.883Z,5.08
2023-04-02T23:53:32.103Z,5.08
2023-04-02T23:55:59.026Z,5.05
2023-04-02T23:58:26.061Z,5.07
